createdAt,value
2023-03-13T00:01:47.997Z,9.82
2023-03-13T00:04:15.606Z,10.02
2023-03-13T00:06:43.889Z,9.43
2023-03-13T00:09:16.919Z,9.90
2023-03-13T00:11:47.269Z,9.43
2023-03-13T00:14:14.592Z,9.90
2023-03-13T00:16:42.040Z,10.27
2023-03-13T00:19:12.898Z,9.00
2023-03-13T00:21:42.347Z,10.75
2023-03-13T00:24:12.969Z,10.13
2023-03-13T00:26:42.602Z,11.30
2023-03-13T00:29:12.707Z,9.68
2023-03-13T00:31:42.417Z,10.70
2023-03-13T00:34:12.588Z,11.00
2023-03-13T00:36:45.440Z,10.13
2023-03-13T00:39:12.836Z,10.82
2023-03-13T00:41:43.946Z,10.55
2023-03-13T00:44:15.156Z,11.40
2023-03-13T00:46:45.538Z,9.93
2023-03-13T00:49:13.098Z,11.75
2023-03-13T00:51:41.549Z,10.60
2023-03-13T00:54:09.934Z,9.95
2023-03-13T00:56:38.790Z,10.18
2023-03-13T00:59:06.888Z,10.82
2023-03-13T01:01:37.517Z,10.45
2023-03-13T01:04:13.062Z,11.80
2023-03-13T01:06:43.263Z,12.55
2023-03-13T01:09:17.072Z,11.07
2023-03-13T01:11:47.297Z,12.00
2023-03-13T01:14:20.622Z,13.30
2023-03-13T01:16:49.884Z,13.02
2023-03-13T01:19:18.073Z,13.32
2023-03-13T01:21:47.780Z,13.65
2023-03-13T01:24:19.254Z,13.30
2023-03-13T01:26:49.269Z,13.43
2023-03-13T01:29:19.341Z,13.50
2023-03-13T01:31:49.394Z,14.27
2023-03-13T01:34:19.478Z,13.85
2023-03-13T01:36:51.205Z,13.63
2023-03-13T01:39:21.304Z,14.93
2023-03-13T01:41:51.376Z,14.00
2023-03-13T01:44:26.869Z,14.10
2023-03-13T01:46:56.521Z,13.05
2023-03-13T01:49:35.570Z,14.27
2023-03-13T01:52:14.806Z,12.77
2023-03-13T01:55:03.106Z,13.52
2023-03-13T01:57:50.531Z,13.80
2023-03-13T02:00:36.932Z,12.52
2023-03-13T02:03:20.234Z,12.05
2023-03-13T02:05:51.666Z,12.63
2023-03-13T02:08:35.195Z,12.27
2023-03-13T02:11:43.086Z,12.70
2023-03-13T02:14:14.061Z,12.50
2023-03-13T02:16:48.853Z,12.48
2023-03-13T02:19:50.153Z,14.13
2023-03-13T02:22:54.759Z,12.65
2023-03-13T02:25:24.637Z,10.75
2023-03-13T02:28:05.002Z,11.23
2023-03-13T02:30:35.604Z,10.18
2023-03-13T02:33:06.042Z,10.50
2023-03-13T02:35:36.574Z,9.68
2023-03-13T02:38:12.836Z,9.25
2023-03-13T02:40:49.163Z,9.63
2023-03-13T02:43:32.024Z,9.45
2023-03-13T02:46:05.831Z,8.85
2023-03-13T02:48:51.096Z,9.43
2023-03-13T02:51:41.499Z,9.30
2023-03-13T02:54:23.058Z,8.40
2023-03-13T02:57:03.078Z,8.35
2023-03-13T02:59:34.999Z,8.02
2023-03-13T03:02:05.539Z,9.40
2023-03-13T03:04:35.574Z,8.40
2023-03-13T03:07:05.704Z,7.40
2023-03-13T03:09:35.819Z,7.10
2023-03-13T03:12:09.079Z,7.28
2023-03-13T03:14:40.153Z,7.03
2023-03-13T03:17:10.211Z,6.28
2023-03-13T03:19:40.222Z,6.90
2023-03-13T03:22:10.606Z,6.35
2023-03-13T03:24:40.732Z,5.90
2023-03-13T03:27:10.735Z,6.20
2023-03-13T03:29:40.919Z,6.20
2023-03-13T03:32:10.921Z,5.40
2023-03-13T03:34:41.028Z,6.22
2023-03-13T03:37:11.009Z,5.38
2023-03-13T03:39:39.641Z,5.10
2023-03-13T03:42:13.150Z,6.28
2023-03-13T03:44:43.638Z,6.28
2023-03-13T03:47:13.709Z,6.35
2023-03-13T03:49:42.103Z,5.18
2023-03-13T03:52:10.503Z,5.10
2023-03-13T03:54:38.858Z,5.32
2023-03-13T03:57:07.349Z,7.22
2023-03-13T03:59:35.801Z,5.93
2023-03-13T04:02:04.736Z,5.32
2023-03-13T04:04:32.642Z,7.20
2023-03-13T04:07:01.006Z,5.15
2023-03-13T04:09:31.914Z,5.47
2023-03-13T04:12:00.814Z,5.97
2023-03-13T04:14:29.198Z,5.97
2023-03-13T04:16:57.645Z,5.80
2023-03-13T04:19:26.071Z,5.78
2023-03-13T04:21:54.429Z,5.93
2023-03-13T04:24:22.863Z,5.63
2023-03-13T04:26:51.208Z,4.63
2023-03-13T04:29:19.683Z,5.35
2023-03-13T04:31:48.086Z,4.93
2023-03-13T04:34:16.456Z,5.78
2023-03-13T04:36:44.942Z,6.35
2023-03-13T04:39:13.337Z,5.88
2023-03-13T04:41:41.734Z,5.72
2023-03-13T04:44:10.251Z,5.50
2023-03-13T04:46:38.547Z,6.00
2023-03-13T04:49:08.815Z,5.28
2023-03-13T04:51:39.021Z,5.25
2023-03-13T04:54:09.530Z,5.28
2023-03-13T04:56:43.597Z,5.22
2023-03-13T04:59:16.334Z,5.72
2023-03-13T05:01:45.683Z,5.25
2023-03-13T05:04:15.835Z,5.38
2023-03-13T05:06:45.692Z,6.28
2023-03-13T05:09:15.630Z,5.03
2023-03-13T05:11:45.321Z,6.50
2023-03-13T05:14:15.133Z,5.35
2023-03-13T05:16:44.967Z,5.45
2023-03-13T05:19:14.733Z,5.43
2023-03-13T05:21:44.781Z,5.45
2023-03-13T05:24:14.425Z,5.90
2023-03-13T05:26:44.136Z,6.25
2023-03-13T05:29:13.977Z,5.60
2023-03-13T05:31:43.776Z,5.97
2023-03-13T05:34:13.571Z,5.50
2023-03-13T05:36:43.330Z,5.88
2023-03-13T05:39:13.186Z,5.40
2023-03-13T05:41:42.970Z,6.32
2023-03-13T05:44:12.750Z,5.68
2023-03-13T05:46:42.525Z,6.88
2023-03-13T05:49:12.501Z,5.22
2023-03-13T05:51:42.142Z,5.57
2023-03-13T05:54:14.936Z,5.90
2023-03-13T05:56:45.109Z,6.05
2023-03-13T05:59:15.069Z,6.60
2023-03-13T06:01:44.882Z,6.60
2023-03-13T06:04:15.504Z,6.35
2023-03-13T06:06:46.564Z,4.88
2023-03-13T06:09:15.245Z,5.85
2023-03-13T06:11:45.065Z,6.28
2023-03-13T06:14:14.804Z,4.85
2023-03-13T06:16:45.270Z,6.28
2023-03-13T06:19:15.177Z,5.85
2023-03-13T06:21:46.087Z,5.03
2023-03-13T06:24:16.530Z,5.45
2023-03-13T06:26:50.077Z,5.30
2023-03-13T06:29:20.052Z,5.95
2023-03-13T06:31:51.400Z,6.35
2023-03-13T06:34:20.092Z,6.72
2023-03-13T06:36:49.823Z,5.88
2023-03-13T06:39:19.666Z,5.70
2023-03-13T06:41:49.445Z,5.13
2023-03-13T06:44:19.156Z,6.75
2023-03-13T06:46:48.871Z,5.55
2023-03-13T06:49:18.832Z,6.35
2023-03-13T06:51:48.412Z,5.32
2023-03-13T06:54:18.285Z,6.10
2023-03-13T06:56:46.685Z,6.45
2023-03-13T06:59:15.076Z,6.60
2023-03-13T07:01:43.470Z,5.75
2023-03-13T07:04:14.508Z,6.10
2023-03-13T07:06:43.570Z,7.70
2023-03-13T07:09:11.762Z,5.30
2023-03-13T07:11:40.140Z,5.15
2023-03-13T07:14:16.633Z,6.15
2023-03-13T07:16:47.852Z,5.30
2023-03-13T07:19:17.849Z,6.53
2023-03-13T07:21:49.686Z,6.00
2023-03-13T07:24:17.795Z,6.35
2023-03-13T07:27:02.059Z,6.72
2023-03-13T07:29:34.258Z,4.75
2023-03-13T07:32:04.365Z,5.28
2023-03-13T07:34:32.668Z,6.20
2023-03-13T07:37:00.956Z,5.80
2023-03-13T07:39:29.403Z,5.60
2023-03-13T07:41:57.926Z,5.60
2023-03-13T07:44:26.672Z,5.28
2023-03-13T07:46:55.193Z,6.07
2023-03-13T07:49:23.739Z,5.97
2023-03-13T07:51:52.363Z,5.82
2023-03-13T07:54:20.539Z,5.28
2023-03-13T07:56:49.203Z,5.38
2023-03-13T07:59:17.529Z,5.20
2023-03-13T08:01:45.888Z,5.03
2023-03-13T08:04:14.973Z,5.55
2023-03-13T08:06:42.770Z,4.75
2023-03-13T08:09:12.254Z,5.35
2023-03-13T08:11:41.279Z,4.65
2023-03-13T08:14:11.121Z,4.68
2023-03-13T08:16:39.645Z,5.63
2023-03-13T08:19:08.022Z,5.03
2023-03-13T08:21:38.457Z,4.32
2023-03-13T08:24:13.018Z,4.63
2023-03-13T08:26:42.961Z,4.45
2023-03-13T08:29:15.612Z,4.13
2023-03-13T08:31:51.520Z,4.95
2023-03-13T08:34:21.833Z,4.45
2023-03-13T08:36:52.954Z,4.65
2023-03-13T08:39:23.156Z,3.70
2023-03-13T08:41:53.194Z,4.40
2023-03-13T08:44:22.647Z,4.38
2023-03-13T08:46:52.510Z,4.22
2023-03-13T08:49:22.513Z,3.97
2023-03-13T08:51:52.530Z,3.70
2023-03-13T08:54:22.082Z,3.85
2023-03-13T08:56:51.829Z,4.10
2023-03-13T08:59:21.649Z,3.80
2023-03-13T09:01:51.563Z,4.57
2023-03-13T09:04:21.204Z,4.35
2023-03-13T09:06:50.942Z,4.22
2023-03-13T09:09:20.763Z,3.78
2023-03-13T09:11:50.563Z,3.75
2023-03-13T09:14:20.348Z,3.72
2023-03-13T09:16:50.163Z,3.83
2023-03-13T09:19:19.940Z,3.38
2023-03-13T09:21:49.764Z,4.05
2023-03-13T09:24:20.258Z,3.70
2023-03-13T09:27:00.644Z,2.75
2023-03-13T09:29:32.070Z,3.70
2023-03-13T09:32:01.372Z,5.13
2023-03-13T09:34:32.114Z,3.75
2023-03-13T09:37:02.089Z,3.40
2023-03-13T09:39:31.948Z,3.40
2023-03-13T09:42:44.401Z,3.45
2023-03-13T09:48:33.188Z,3.13
2023-03-13T09:51:19.649Z,2.78
2023-03-13T09:54:14.110Z,2.85
2023-03-13T09:57:37.865Z,2.60
2023-03-13T10:00:37.193Z,3.28
2023-03-13T10:03:28.996Z,3.60
2023-03-13T10:06:19.889Z,3.05
2023-03-13T10:08:47.184Z,2.90
2023-03-13T10:12:09.683Z,3.67
2023-03-13T10:15:21.659Z,2.70
2023-03-13T10:17:50.100Z,3.10
2023-03-13T10:20:27.218Z,2.97
2023-03-13T10:23:27.652Z,3.50
2023-03-13T10:25:57.640Z,4.38
2023-03-13T10:28:27.649Z,3.35
2023-03-13T10:31:33.196Z,2.28
2023-03-13T10:34:14.682Z,2.70
2023-03-13T10:36:54.782Z,2.80
2023-03-13T10:39:29.613Z,2.42
2023-03-13T10:42:24.050Z,2.38
2023-03-13T10:45:07.145Z,2.60
2023-03-13T10:47:38.438Z,2.58
2023-03-13T10:50:20.893Z,2.67
2023-03-13T10:52:53.076Z,1.83
2023-03-13T10:55:27.112Z,2.80
2023-03-13T10:58:06.298Z,2.00
2023-03-13T11:00:41.300Z,3.03
2023-03-13T11:03:35.208Z,2.38
2023-03-13T11:06:05.764Z,2.00
2023-03-13T11:08:37.489Z,2.10
2023-03-13T11:11:20.106Z,3.03
2023-03-13T11:13:49.941Z,1.65
2023-03-13T11:16:29.450Z,1.70
2023-03-13T11:19:57.024Z,1.90
2023-03-13T11:23:11.146Z,1.77
2023-03-13T11:26:17.123Z,1.73
2023-03-13T11:29:09.614Z,2.03
2023-03-13T11:32:00.646Z,1.60
2023-03-13T11:34:58.801Z,1.42
2023-03-13T11:37:37.065Z,1.30
2023-03-13T11:40:54.774Z,1.77
2023-03-13T11:44:23.910Z,1.38
2023-03-13T11:47:30.538Z,1.60
2023-03-13T11:50:31.216Z,1.30
2023-03-13T11:54:10.442Z,1.38
2023-03-13T11:56:59.777Z,1.02
2023-03-13T11:59:56.912Z,1.35
2023-03-13T12:02:56.964Z,1.38
2023-03-13T12:05:51.920Z,1.00
2023-03-13T12:08:46.278Z,1.35
2023-03-13T12:11:36.530Z,0.90
2023-03-13T12:14:44.636Z,1.20
2023-03-13T12:17:33.775Z,1.27
2023-03-13T12:20:50.198Z,1.30
2023-03-13T12:23:41.970Z,1.05
2023-03-13T12:26:20.692Z,0.85
2023-03-13T12:29:46.016Z,0.75
2023-03-13T12:32:49.689Z,0.93
2023-03-13T12:35:35.189Z,1.02
2023-03-13T12:38:13.890Z,0.98
2023-03-13T12:41:43.335Z,1.00
2023-03-13T12:44:20.577Z,1.38
2023-03-13T12:47:26.953Z,1.05
2023-03-13T12:50:28.749Z,0.80
2023-03-13T12:53:40.959Z,0.98
2023-03-13T12:56:18.927Z,0.90
2023-03-13T12:59:03.091Z,0.95
2023-03-13T13:01:44.135Z,1.40
2023-03-13T13:04:47.205Z,1.13
2023-03-13T13:07:38.693Z,1.02
2023-03-13T13:10:11.508Z,1.08
2023-03-13T13:13:07.857Z,1.20
2023-03-13T13:16:06.266Z,1.10
2023-03-13T13:18:36.375Z,1.10
2023-03-13T13:21:04.996Z,1.60
2023-03-13T13:23:46.851Z,0.93
2023-03-13T13:26:31.060Z,1.20
2023-03-13T13:29:21.782Z,1.70
2023-03-13T13:31:51.726Z,1.20
2023-03-13T13:34:32.088Z,1.35
2023-03-13T13:37:27.445Z,1.42
2023-03-13T13:40:16.496Z,1.10
2023-03-13T13:45:30.341Z,1.30
2023-03-13T13:48:28.352Z,1.38
2023-03-13T13:51:19.710Z,1.63
2023-03-13T13:54:18.313Z,1.23
2023-03-13T13:56:59.331Z,1.25
2023-03-13T14:00:06.528Z,1.50
2023-03-13T14:02:55.531Z,1.23
2023-03-13T14:08:31.639Z,1.20
2023-03-13T14:11:34.242Z,1.13
2023-03-13T14:14:21.217Z,1.30
2023-03-13T14:16:58.046Z,1.35
2023-03-13T14:19:43.300Z,1.40
2023-03-13T14:22:16.308Z,1.20
2023-03-13T14:24:58.919Z,1.80
2023-03-13T14:27:26.748Z,1.42
2023-03-13T14:30:09.525Z,1.33
2023-03-13T14:32:40.425Z,1.52
2023-03-13T14:35:20.835Z,1.50
2023-03-13T14:38:03.336Z,1.27
2023-03-13T14:40:39.335Z,1.38
2023-03-13T14:43:27.547Z,1.10
2023-03-13T14:45:58.664Z,1.40
2023-03-13T14:48:33.946Z,1.65
2023-03-13T14:51:24.359Z,1.30
2023-03-13T14:54:03.879Z,1.60
2023-03-13T14:56:45.181Z,1.20
2023-03-13T14:59:28.427Z,1.20
2023-03-13T15:02:24.426Z,1.63
2023-03-13T15:05:07.482Z,1.30
2023-03-13T15:07:54.437Z,1.67
2023-03-13T15:10:37.194Z,1.45
2023-03-13T15:13:33.541Z,1.67
2023-03-13T15:16:20.276Z,1.40
2023-03-13T15:18:54.569Z,2.03
2023-03-13T15:21:34.002Z,1.50
2023-03-13T15:24:15.461Z,1.40
2023-03-13T15:26:42.896Z,1.30
2023-03-13T15:29:11.858Z,1.52
2023-03-13T15:31:40.364Z,1.40
2023-03-13T15:34:15.126Z,1.50
2023-03-13T15:36:45.133Z,1.40
2023-03-13T15:39:20.499Z,1.30
2023-03-13T15:41:51.220Z,2.00
2023-03-13T15:44:21.332Z,1.40
2023-03-13T15:46:51.376Z,1.58
2023-03-13T15:49:21.525Z,1.30
2023-03-13T15:51:51.544Z,1.60
2023-03-13T15:54:21.576Z,1.33
2023-03-13T15:56:52.876Z,1.52
2023-03-13T15:59:22.930Z,1.80
2023-03-13T16:01:52.957Z,1.63
2023-03-13T16:04:23.078Z,1.45
2023-03-13T16:06:53.100Z,1.58
2023-03-13T16:09:23.134Z,1.60
2023-03-13T16:11:53.143Z,2.22
2023-03-13T16:14:23.144Z,1.60
2023-03-13T16:16:53.932Z,1.73
2023-03-13T16:19:24.080Z,1.70
2023-03-13T16:21:54.226Z,1.60
2023-03-13T16:24:24.266Z,1.73
2023-03-13T16:26:54.330Z,1.50
2023-03-13T16:29:24.435Z,2.20
2023-03-13T16:31:54.458Z,2.83
2023-03-13T16:34:24.471Z,1.65
2023-03-13T16:36:54.458Z,1.75
2023-03-13T16:39:24.521Z,1.83
2023-03-13T16:41:54.515Z,1.85
2023-03-13T16:44:27.030Z,1.38
2023-03-13T16:47:05.504Z,1.38
2023-03-13T16:49:36.303Z,1.67
2023-03-13T16:52:06.462Z,1.45
2023-03-13T16:54:36.436Z,2.10
2023-03-13T16:57:19.900Z,1.30
2023-03-13T16:59:48.140Z,1.60
2023-03-13T17:02:20.478Z,1.75
2023-03-13T17:04:49.037Z,1.70
2023-03-13T17:07:27.901Z,1.38
2023-03-13T17:09:57.985Z,1.52
2023-03-13T17:12:28.045Z,1.65
2023-03-13T17:14:58.091Z,1.80
2023-03-13T17:17:29.392Z,1.52
2023-03-13T17:19:59.400Z,1.50
2023-03-13T17:22:29.397Z,1.60
2023-03-13T17:24:59.390Z,1.60
2023-03-13T17:27:29.676Z,1.75
2023-03-13T17:29:59.873Z,1.58
2023-03-13T17:32:30.121Z,1.70
2023-03-13T17:35:00.181Z,1.80
2023-03-13T17:37:30.664Z,1.50
2023-03-13T17:40:00.911Z,1.67
2023-03-13T17:42:31.214Z,2.45
2023-03-13T17:45:01.220Z,2.60
2023-03-13T17:47:31.264Z,2.38
2023-03-13T17:50:01.400Z,2.53
2023-03-13T17:52:31.479Z,2.22
2023-03-13T17:54:59.888Z,2.72
2023-03-13T17:57:28.408Z,2.50
2023-03-13T17:59:56.718Z,1.98
2023-03-13T18:02:25.402Z,1.90
2023-03-13T18:04:53.743Z,1.70
2023-03-13T18:07:29.871Z,1.83
2023-03-13T18:09:59.942Z,1.65
2023-03-13T18:12:29.994Z,2.03
2023-03-13T18:15:00.012Z,2.67
2023-03-13T18:17:30.893Z,1.60
2023-03-13T18:20:00.933Z,2.05
2023-03-13T18:22:31.068Z,1.77
2023-03-13T18:25:01.065Z,2.03
2023-03-13T18:27:31.291Z,2.58
2023-03-13T18:30:01.296Z,3.53
2023-03-13T18:32:31.373Z,5.30
2023-03-13T18:35:01.406Z,2.40
2023-03-13T18:37:33.151Z,2.17
2023-03-13T18:40:07.389Z,1.88
2023-03-13T18:42:37.390Z,1.80
2023-03-13T18:45:09.975Z,2.08
2023-03-13T18:47:39.967Z,1.85
2023-03-13T18:50:36.490Z,2.22
2023-03-13T18:53:06.986Z,1.73
2023-03-13T18:55:37.187Z,2.22
2023-03-13T18:58:11.160Z,2.38
2023-03-13T19:00:41.377Z,2.58
2023-03-13T19:03:11.572Z,3.55
2023-03-13T19:05:41.632Z,6.55
2023-03-13T19:08:11.639Z,2.95
2023-03-13T19:10:41.723Z,10.05
2023-03-13T19:13:11.767Z,8.23
2023-03-13T19:15:41.812Z,6.32
2023-03-13T19:18:12.364Z,7.95
2023-03-13T19:20:42.516Z,10.50
2023-03-13T19:23:10.828Z,9.35
2023-03-13T19:25:39.474Z,7.78
2023-03-13T19:28:10.185Z,10.25
2023-03-13T19:30:39.455Z,11.57
2023-03-13T19:33:07.549Z,19.52
2023-03-13T19:35:35.956Z,4.45
2023-03-13T19:38:04.329Z,2.67
2023-03-13T19:40:33.030Z,4.97
2023-03-13T19:43:01.239Z,3.05
2023-03-13T19:45:29.633Z,2.63
2023-03-13T19:47:58.030Z,2.80
2023-03-13T19:50:31.138Z,3.00
2023-03-13T19:53:01.345Z,3.25
2023-03-13T19:55:31.636Z,3.65
2023-03-13T19:58:04.016Z,3.40
2023-03-13T20:00:34.906Z,3.60
2023-03-13T20:03:04.947Z,2.80
2023-03-13T20:05:35.121Z,3.15
2023-03-13T20:08:05.173Z,3.40
2023-03-13T20:10:35.486Z,2.83
2023-03-13T20:13:05.498Z,2.60
2023-03-13T20:15:35.668Z,2.92
2023-03-13T20:18:05.857Z,3.22
2023-03-13T20:20:36.048Z,3.55
2023-03-13T20:23:06.316Z,3.15
2023-03-13T20:25:36.359Z,3.83
2023-03-13T20:28:06.405Z,3.00
2023-03-13T20:30:43.024Z,3.05
2023-03-13T20:33:13.463Z,2.90
2023-03-13T20:35:43.567Z,3.05
2023-03-13T20:38:12.053Z,3.13
2023-03-13T20:40:40.407Z,3.50
2023-03-13T20:43:08.886Z,3.00
2023-03-13T20:45:37.359Z,4.15
2023-03-13T20:48:06.016Z,3.00
2023-03-13T20:50:34.998Z,2.83
2023-03-13T20:53:02.984Z,2.70
2023-03-13T20:55:32.022Z,3.47
2023-03-13T20:58:00.622Z,2.75
2023-03-13T21:00:27.724Z,2.60
2023-03-13T21:02:56.186Z,2.25
2023-03-13T21:05:24.711Z,2.95
2023-03-13T21:07:53.298Z,2.53
2023-03-13T21:10:21.729Z,2.50
2023-03-13T21:12:49.882Z,2.30
2023-03-13T21:15:18.479Z,2.30
2023-03-13T21:17:46.727Z,2.42
2023-03-13T21:20:15.456Z,2.42
2023-03-13T21:22:44.231Z,2.47
2023-03-13T21:25:13.210Z,2.08
2023-03-13T21:27:43.806Z,2.25
2023-03-13T21:30:18.375Z,2.05
2023-03-13T21:32:49.179Z,1.73
2023-03-13T21:35:19.648Z,1.83
2023-03-13T21:37:49.686Z,2.00
2023-03-13T21:40:19.930Z,1.90
2023-03-13T21:42:49.928Z,1.70
2023-03-13T21:45:20.028Z,1.40
2023-03-13T21:47:50.061Z,1.75
2023-03-13T21:53:10.096Z,1.35
2023-03-13T21:55:40.144Z,1.52
2023-03-13T21:58:10.164Z,1.40
2023-03-13T22:00:40.180Z,1.38
2023-03-13T22:03:10.239Z,1.50
2023-03-13T22:05:44.934Z,1.48
2023-03-13T22:08:15.795Z,1.38
2023-03-13T22:10:54.949Z,1.00
2023-03-13T22:13:25.071Z,1.23
2023-03-13T22:15:55.296Z,1.00
2023-03-13T22:18:25.407Z,0.95
2023-03-13T22:21:01.601Z,1.35
2023-03-13T22:23:31.740Z,0.98
2023-03-13T22:26:01.800Z,1.23
2023-03-13T22:28:32.104Z,1.10
2023-03-13T22:31:06.348Z,1.30
2023-03-13T22:33:35.375Z,1.00
2023-03-13T22:36:06.533Z,0.98
2023-03-13T22:38:39.138Z,1.00
2023-03-13T22:41:13.775Z,1.10
2023-03-13T22:43:44.760Z,1.05
2023-03-13T22:46:15.552Z,1.20
2023-03-13T22:48:45.729Z,1.02
2023-03-13T22:51:16.769Z,1.20
2023-03-13T22:53:46.795Z,1.00
2023-03-13T22:56:17.067Z,0.70
2023-03-13T22:58:47.420Z,0.88
2023-03-13T23:01:19.198Z,1.00
2023-03-13T23:03:49.240Z,0.93
2023-03-13T23:06:24.246Z,1.55
2023-03-13T23:08:54.497Z,1.25
2023-03-13T23:11:24.702Z,0.90
2023-03-13T23:13:53.072Z,1.00
2023-03-13T23:16:21.354Z,1.00
2023-03-13T23:18:50.129Z,1.08
2023-03-13T23:21:18.485Z,1.10
2023-03-13T23:23:47.219Z,1.25
2023-03-13T23:26:16.549Z,1.20
2023-03-13T23:28:46.375Z,1.10
2023-03-13T23:31:22.297Z,1.20
2023-03-13T23:33:53.137Z,1.17
2023-03-13T23:36:23.207Z,1.00
2023-03-13T23:38:57.391Z,0.68
2023-03-13T23:41:27.461Z,1.40
2023-03-13T23:43:58.546Z,1.23
2023-03-13T23:46:28.582Z,1.10
2023-03-13T23:48:59.426Z,1.38
2023-03-13T23:51:29.455Z,1.33
2023-03-13T23:54:00.872Z,1.25
2023-03-13T23:56:34.089Z,1.30
2023-03-13T23:59:04.112Z,1.10
